Time;durP1;ratioP1;P1;durP2;ratioP2;P2;SDS_P1;SDS_P2;PMS_P1;PMS_P2;Temp;Humidity;BMP_temperature;BMP_pressure;BME280_temperature;BME280_humidity;BME280_pressure;Samples;Min_cycle;Max_cycle;Signal;HPM_P1;HPM_P2
2021/12/12 00:02:26;;;;;;;64.00;33.80;;;;;;;-2.59;96.07;101713.28;7400668;19;20016;-71
2021/12/12 00:04:58;;;;;;;63.67;35.22;;;;;;;-2.57;96.22;101714.22;7396895;19;20032;-71
2021/12/12 00:07:30;;;;;;;63.08;34.17;;;;;;;-2.57;96.23;101714.22;7400536;19;20023;-71
2021/12/12 00:10:04;;;;;;;64.78;35.17;;;;;;;-2.54;96.24;101724.66;7400311;19;20032;-71
2021/12/12 00:12:36;;;;;;;65.95;34.55;;;;;;;-2.51;96.10;101721.34;7400111;19;20011;-72
2021/12/12 00:15:09;;;;;;;68.80;35.05;;;;;;;-2.50;96.33;101721.41;7398001;19;20026;-71
2021/12/12 00:17:38;;;;;;;59.30;33.05;;;;;;;-2.48;96.25;101717.25;7398049;19;20078;-71
2021/12/12 00:20:12;;;;;;;63.85;34.85;;;;;;;-2.44;96.35;101715.66;7399185;19;20481;-71
2021/12/12 00:22:42;;;;;;;62.33;35.03;;;;;;;-2.49;96.21;101699.16;7399918;19;20015;-72
2021/12/12 00:25:12;;;;;;;62.83;35.15;;;;;;;-2.41;95.94;101712.38;7397807;19;20014;-71
2021/12/12 00:27:40;;;;;;;66.35;36.42;;;;;;;-2.40;96.13;101712.47;7399398;19;20074;-72
2021/12/12 00:30:11;;;;;;;64.35;35.38;;;;;;;-2.36;96.19;101713.50;7399182;19;20039;-72
2021/12/12 00:32:40;;;;;;;68.40;36.05;;;;;;;-2.33;96.14;101729.03;7399554;19;20011;-72
2021/12/12 00:35:14;;;;;;;66.95;38.35;;;;;;;-2.29;96.28;101733.50;7396890;19;20022;-70
2021/12/12 00:37:43;;;;;;;;;;;;;;;-2.26;96.26;101730.19;7398230;19;20486;-71
2021/12/12 00:40:23;;;;;;;64.40;33.92;;;;;;;-2.24;96.11;101734.59;7398942;19;19932;-71
2021/12/12 00:42:53;;;;;;;63.50;33.80;;;;;;;-2.22;96.00;101738.13;7399221;19;20018;-70
2021/12/12 00:45:21;;;;;;;64.32;36.13;;;;;;;-2.19;96.03;101743.41;7396812;19;20031;-72
2021/12/12 00:47:49;;;;;;;64.38;36.10;;;;;;;-2.19;96.00;101738.25;7398774;19;20032;-71
2021/12/12 00:50:28;;;;;;;65.28;35.15;;;;;;;-2.16;96.02;101741.00;7398344;19;20015;-71
2021/12/12 00:53:04;;;;;;;63.97;34.45;;;;;;;-2.12;95.75;101752.31;7396906;19;20014;-71
2021/12/12 00:55:37;;;;;;;58.67;33.15;;;;;;;-2.10;95.76;101757.50;7396324;19;20019;-71
2021/12/12 00:58:05;;;;;;;56.72;34.80;;;;;;;-2.09;95.90;101774.72;7396845;19;20026;-71
2021/12/12 01:00:39;;;;;;;61.33;34.15;;;;;;;-2.10;95.97;101778.94;7398113;19;20027;-71
2021/12/12 01:03:10;;;;;;;59.28;34.70;;;;;;;-2.07;95.72;101778.22;7398560;19;20052;-70
2021/12/12 01:05:41;;;;;;;58.22;33.58;;;;;;;-2.09;95.41;101773.00;7398634;19;20014;-71
2021/12/12 01:08:10;;;;;;;59.30;32.97;;;;;;;-2.06;95.60;101782.56;7398535;19;20018;-71
2021/12/12 01:10:41;;;;;;;60.25;33.15;;;;;;;-2.06;95.59;101773.16;7397962;19;20019;-71
2021/12/12 01:13:13;;;;;;;58.38;34.70;;;;;;;-2.09;95.46;101770.44;7398114;19;20416;-70
2021/12/12 01:15:45;;;;;;;53.28;32.13;;;;;;;-2.07;95.39;101771.41;7396223;19;20490;-71
2021/12/12 01:18:19;;;;;;;58.25;33.38;;;;;;;-2.07;95.28;101763.69;7394925;19;20483;-70
2021/12/12 01:20:53;;;;;;;50.63;30.48;;;;;;;-2.07;95.31;101757.63;7395767;19;20018;-71
2021/12/12 01:23:26;;;;;;;54.92;32.78;;;;;;;-2.06;95.84;101761.97;7397693;19;20018;-70
2021/12/12 01:25:55;;;;;;;57.20;33.03;;;;;;;-2.08;95.55;101755.91;7397789;19;20018;-71
2021/12/12 01:28:27;;;;;;;57.47;33.72;;;;;;;-2.13;95.84;101740.25;7397435;19;20032;-71
2021/12/12 01:30:58;;;;;;;61.72;33.50;;;;;;;-2.17;95.58;101739.22;7397782;19;20032;-71
2021/12/12 01:33:35;;;;;;;56.25;34.53;;;;;;;-2.13;95.20;101758.25;7397407;19;20483;-71
2021/12/12 01:36:22;;;;;;;56.95;33.03;;;;;;;-2.17;95.13;101761.50;7397145;19;20018;-71
2021/12/12 01:38:54;;;;;;;58.30;31.88;;;;;;;-2.20;95.32;101761.34;7397471;19;20073;-71
2021/12/12 01:41:27;;;;;;;59.08;35.38;;;;;;;-2.23;95.10;101751.78;7397415;19;20029;-71
2021/12/12 01:44:01;;;;;;;60.45;33.35;;;;;;;-2.25;95.27;101753.44;7397076;19;20031;-70
2021/12/12 01:46:34;;;;;;;57.38;33.05;;;;;;;-2.27;95.65;101749.91;7397321;19;20026;-72
2021/12/12 01:49:08;;;;;;;55.90;32.10;;;;;;;-2.27;95.19;101754.13;7397155;19;20028;-71
2021/12/12 01:51:39;;;;;;;57.20;32.15;;;;;;;-2.33;95.37;101749.59;7396386;19;20010;-72
2021/12/12 01:54:09;;;;;;;59.47;33.95;;;;;;;-2.32;95.57;101756.50;7396180;19;20019;-71
2021/12/12 01:56:42;;;;;;;58.92;32.42;;;;;;;-2.33;95.46;101767.59;7396522;19;20026;-71
2021/12/12 01:59:13;;;;;;;59.83;35.35;;;;;;;-2.37;95.42;101758.84;7396771;19;20017;-71
2021/12/12 02:01:45;;;;;;;57.58;33.30;;;;;;;-2.39;95.20;101762.16;7396799;19;20019;-71
2021/12/12 02:04:17;;;;;;;59.30;33.22;;;;;;;-2.44;95.14;101759.34;7395709;19;20019;-72
2021/12/12 02:06:50;;;;;;;56.38;32.40;;;;;;;-2.46;95.05;101763.56;7395924;19;20503;-72
2021/12/12 02:09:19;;;;;;;63.05;32.63;;;;;;;-2.50;95.32;101759.97;7396250;19;20358;-72
2021/12/12 02:11:49;;;;;;;54.67;32.25;;;;;;;-2.51;94.92;101759.91;7396108;19;20075;-72
2021/12/12 02:14:21;;;;;;;60.13;34.85;;;;;;;-2.54;95.18;101760.63;7396508;19;20424;-71
2021/12/12 02:16:53;;;;;;;58.95;33.35;;;;;;;-2.55;95.52;101753.72;7395397;19;20047;-71
2021/12/12 02:19:31;;;;;;;59.45;34.65;;;;;;;-2.55;95.38;101752.81;7395901;19;20374;-71
2021/12/12 02:22:08;;;;;;;63.65;34.15;;;;;;;-2.58;95.41;101744.97;7395386;19;20363;-71
2021/12/12 02:35:43;;;;;;;59.95;34.30;;;;;;;-2.59;95.56;101750.94;7393690;19;20011;-71
2021/12/12 02:38:15;;;;;;;63.90;34.95;;;;;;;-2.59;95.75;101756.06;7394260;19;20018;-71
2021/12/12 02:40:49;;;;;;;58.53;33.47;;;;;;;-2.58;95.79;101765.53;7395456;19;20026;-71
2021/12/12 02:43:20;;;;;;;61.78;34.08;;;;;;;-2.58;95.53;101768.97;7395441;19;20035;-71
2021/12/12 02:45:51;;;;;;;60.33;34.45;;;;;;;-2.59;95.52;101758.63;7395579;19;20040;-71
2021/12/12 02:48:20;;;;;;;61.25;36.50;;;;;;;-2.59;95.47;101766.34;7395420;19;20018;-71
2021/12/12 02:50:52;;;;;;;59.35;33.22;;;;;;;-2.60;95.71;101772.28;7394425;19;20491;-71
2021/12/12 02:53:24;;;;;;;61.60;34.90;;;;;;;-2.63;95.50;101771.34;7394731;19;20413;-71
2021/12/12 02:55:58;;;;;;;67.85;34.78;;;;;;;-2.62;95.43;101775.69;7395203;19;20509;-71
2021/12/12 02:58:27;;;;;;;63.33;34.58;;;;;;;-2.62;95.50;101777.34;7393478;19;20090;-71
2021/12/12 03:01:05;;;;;;;60.35;33.75;;;;;;;-2.63;95.61;101781.63;7394444;19;20018;-71
2021/12/12 03:03:37;;;;;;;67.28;34.78;;;;;;;-2.62;95.68;101775.69;7394635;19;20040;-70
2021/12/12 03:06:06;;;;;;;64.28;35.97;;;;;;;-2.64;95.41;101784.13;7394694;19;20021;-71
2021/12/12 03:08:36;;;;;;;65.90;34.47;;;;;;;-2.64;95.24;101791.84;7394424;19;20018;-71
2021/12/12 03:11:07;;;;;;;65.88;35.13;;;;;;;-2.65;95.77;101790.94;7393807;19;20421;-71
2021/12/12 03:13:36;;;;;;;60.53;34.63;;;;;;;-2.68;95.60;101795.03;7394261;19;20083;-71
2021/12/12 03:16:05;;;;;;;61.38;36.03;;;;;;;-2.68;95.35;101793.38;7394160;19;20018;-71
2021/12/12 03:18:39;;;;;;;71.43;35.35;;;;;;;-2.67;95.58;101795.09;7392453;19;20035;-71
2021/12/12 03:21:15;;;;;;;70.57;36.47;;;;;;;-2.73;95.64;101789.69;7394596;19;20090;-71
2021/12/12 03:23:44;;;;;;;64.05;34.20;;;;;;;-2.68;95.55;101798.50;7393550;19;20018;-71
2021/12/12 03:26:16;;;;;;;60.97;32.97;;;;;;;-2.68;95.35;101792.47;7393950;19;20094;-71
2021/12/12 03:28:48;;;;;;;61.28;34.47;;;;;;;-2.69;95.58;101793.25;7391569;19;20416;-71
2021/12/12 03:31:20;;;;;;;63.17;35.17;;;;;;;-2.67;95.66;101789.09;7393712;19;20362;-71
2021/12/12 03:33:49;;;;;;;68.90;34.83;;;;;;;-2.66;95.62;101796.00;7393554;19;20035;-71
2021/12/12 03:36:19;;;;;;;64.72;34.88;;;;;;;-2.66;95.57;101786.59;7393685;19;20014;-71
2021/12/12 03:38:53;;;;;;;61.60;34.33;;;;;;;-2.65;95.80;101787.50;7392059;19;20027;-71
2021/12/12 03:41:30;;;;;;;62.45;35.88;;;;;;;-2.62;95.46;101785.97;7400894;19;20036;-71
2021/12/12 03:44:01;;;;;;;68.20;36.03;;;;;;;-2.63;95.49;101788.44;7399562;19;20484;-71
2021/12/12 03:46:31;;;;;;;68.05;36.08;;;;;;;-2.58;95.61;101793.81;7401236;19;20028;-71
2021/12/12 03:49:00;;;;;;;67.32;34.45;;;;;;;-2.57;95.58;101791.31;7398107;19;20033;-71
2021/12/12 03:51:31;;;;;;;69.80;36.70;;;;;;;-2.55;95.70;101797.41;7399642;19;20024;-71
2021/12/12 03:54:00;;;;;;;66.10;33.58;;;;;;;-2.54;95.42;101799.19;7399628;19;20019;-71
2021/12/12 03:56:31;;;;;;;60.35;34.75;;;;;;;-2.52;95.20;101791.53;7401267;19;20027;-71
2021/12/12 03:58:59;;;;;;;60.92;31.42;;;;;;;-2.50;95.49;101792.50;7398082;19;20018;-71
2021/12/12 04:01:31;;;;;;;57.45;30.67;;;;;;;-2.51;95.51;101794.19;7400459;19;20035;-71
2021/12/12 04:06:37;;;;;;;60.15;33.42;;;;;;;-2.51;95.29;101786.47;7397549;19;20002;-72
2021/12/12 04:09:09;;;;;;;58.88;33.88;;;;;;;-2.50;95.21;101793.38;7400102;19;20018;-72
2021/12/12 04:11:42;;;;;;;59.55;33.15;;;;;;;-2.50;95.31;101798.50;7400456;19;20015;-72
2021/12/12 04:14:12;;;;;;;62.43;34.10;;;;;;;-2.50;95.22;101798.50;7398955;19;20356;-72
2021/12/12 04:16:44;;;;;;;64.40;33.60;;;;;;;-2.50;95.08;101795.94;7399843;19;20441;-72
2021/12/12 04:19:13;;;;;;;59.60;32.67;;;;;;;-2.50;95.23;101795.94;7397716;19;20018;-72
2021/12/12 04:21:43;;;;;;;57.65;32.72;;;;;;;-2.50;95.32;101808.78;7399634;19;20018;-72
2021/12/12 04:24:12;;;;;;;60.58;34.47;;;;;;;-2.50;95.14;101810.50;7398514;19;20371;-72
2021/12/12 04:26:44;;;;;;;53.53;30.83;;;;;;;-2.50;95.34;101813.94;7399573;19;20031;-72
2021/12/12 04:29:17;;;;;;;57.50;31.10;;;;;;;-2.50;95.15;101813.06;7399944;19;20018;-72
2021/12/12 04:31:48;;;;;;;63.95;34.88;;;;;;;-2.51;95.12;101817.31;7399316;19;20433;-72
2021/12/12 04:34:17;;;;;;;60.83;33.65;;;;;;;-2.56;94.91;101816.19;7398611;19;20018;-72
2021/12/12 04:36:47;;;;;;;61.30;33.67;;;;;;;-2.52;94.98;101817.25;7399256;19;20010;-72
2021/12/12 04:39:18;;;;;;;63.50;32.47;;;;;;;-2.52;95.22;101825.81;7397372;19;20031;-72
2021/12/12 04:41:58;;;;;;;62.25;32.72;;;;;;;-2.54;95.23;101816.25;7396973;19;20015;-72
2021/12/12 04:44:29;;;;;;;58.83;32.20;;;;;;;-2.53;95.08;101826.63;7397970;19;20027;-72
2021/12/12 04:49:58;;;;;;;63.90;34.13;;;;;;;-2.55;95.05;101830.81;7398549;19;20010;-72
2021/12/12 04:52:40;;;;;;;64.15;33.08;;;;;;;-2.58;95.16;101830.66;7397050;19;20417;-71
2021/12/12 04:55:12;;;;;;;60.83;32.90;;;;;;;-2.57;95.09;101829.84;7397004;19;20025;-71
2021/12/12 04:57:47;;;;;;;62.17;33.50;;;;;;;-2.57;95.18;101822.13;7398459;19;20024;-71
2021/12/12 05:00:19;;;;;;;68.22;33.65;;;;;;;-2.60;95.10;101822.00;7398596;19;20018;-71
2021/12/12 05:02:56;;;;;;;66.30;34.47;;;;;;;-2.60;95.12;101818.53;7398786;19;20015;-71
2021/12/12 05:05:28;;;;;;;63.67;34.28;;;;;;;-2.58;95.19;101833.22;7395945;19;20483;-71
2021/12/12 05:08:03;;;;;;;68.32;34.08;;;;;;;-2.58;95.32;101829.78;7396225;19;20076;-72
2021/12/12 05:10:37;;;;;;;72.32;35.67;;;;;;;-2.58;95.38;101833.22;7396516;19;20010;-72
2021/12/12 05:13:14;;;;;;;69.72;35.65;;;;;;;-2.56;95.20;101829.06;7398444;19;20029;-72
2021/12/12 05:15:46;;;;;;;67.20;32.78;;;;;;;-2.57;95.56;101831.56;7397967;19;20438;-71
2021/12/12 05:18:19;;;;;;;66.30;34.30;;;;;;;-2.56;95.36;101833.31;7396404;19;20375;-72
2021/12/12 05:20:51;;;;;;;67.28;35.00;;;;;;;-2.52;95.44;101838.66;7397782;19;20018;-71
2021/12/12 05:23:22;;;;;;;64.60;35.25;;;;;;;-2.52;95.37;101838.66;7397702;19;20010;-71
2021/12/12 05:25:55;;;;;;;67.78;36.75;;;;;;;-2.50;95.38;101836.19;7397766;19;20027;-71
2021/12/12 05:28:31;;;;;;;70.47;35.95;;;;;;;-2.50;95.68;101837.06;7397831;19;20031;-72
2021/12/12 05:31:01;;;;;;;64.95;32.33;;;;;;;-2.46;95.64;101840.66;7397881;19;20015;-71
2021/12/12 05:33:31;;;;;;;70.93;36.13;;;;;;;-2.46;95.55;101838.09;7396861;19;20014;-71
2021/12/12 05:36:01;;;;;;;68.80;34.67;;;;;;;-2.42;95.56;101841.72;7397977;19;20031;-71
2021/12/12 05:38:30;;;;;;;67.45;34.72;;;;;;;-2.41;95.54;101840.88;7396553;19;20023;-71
2021/12/12 05:40:58;;;;;;;64.63;34.15;;;;;;;-2.44;95.65;101831.31;7397176;19;20036;-72
2021/12/12 05:43:31;;;;;;;67.63;34.60;;;;;;;-2.37;95.57;101835.09;7396331;19;20362;-71
2021/12/12 05:46:01;;;;;;;70.35;34.78;;;;;;;-2.35;95.85;101839.50;7396976;19;20098;-72
2021/12/12 05:48:30;;;;;;;67.68;36.00;;;;;;;-2.32;95.58;101833.63;7396859;19;20015;-72
2021/12/12 05:50:58;;;;;;;75.28;35.85;;;;;;;-2.31;95.61;101846.56;7396931;19;20102;-72
2021/12/12 05:53:27;;;;;;;74.30;36.22;;;;;;;-2.28;95.92;101850.97;7394293;19;20366;-72
2021/12/12 05:55:55;;;;;;;64.15;35.50;;;;;;;-2.26;95.74;101851.03;7396648;19;20015;-72
2021/12/12 05:58:24;;;;;;;73.30;35.88;;;;;;;-2.25;95.58;101857.94;7395847;19;20024;-72
2021/12/12 06:00:59;;;;;;;68.95;34.20;;;;;;;-2.25;95.70;101850.22;7396455;19;20014;-72
2021/12/12 06:03:37;;;;;;;67.18;33.28;;;;;;;-2.24;95.75;101841.72;7394599;19;20040;-72
2021/12/12 06:06:08;;;;;;;69.53;35.72;;;;;;;-2.26;95.38;101833.94;7395956;19;20500;-72
2021/12/12 06:08:37;;;;;;;61.95;33.83;;;;;;;-2.23;95.56;101846.91;7396643;19;20014;-72
2021/12/12 06:11:07;;;;;;;64.00;33.10;;;;;;;-2.23;95.61;101839.19;7396108;19;20030;-70
2021/12/12 06:13:37;;;;;;;64.68;33.85;;;;;;;-2.21;95.59;101837.59;7395672;19;20018;-70
2021/12/12 06:16:09;;;;;;;62.10;32.28;;;;;;;-2.20;95.38;101843.63;7396333;19;20022;-71
2021/12/12 06:18:39;;;;;;;62.67;33.55;;;;;;;-2.19;95.48;101841.09;7395169;19;20029;-72
2021/12/12 06:21:07;;;;;;;62.28;32.67;;;;;;;-2.19;95.70;101841.09;7395803;19;20027;-71
2021/12/12 06:23:35;;;;;;;60.33;31.40;;;;;;;-2.20;95.79;101829.09;7395384;19;20027;-71
2021/12/12 06:26:10;;;;;;;63.50;32.70;;;;;;;-2.17;95.64;101833.50;7395714;19;20014;-71
2021/12/12 06:28:42;;;;;;;64.45;32.70;;;;;;;-2.17;95.31;101838.63;7395600;19;20015;-71
2021/12/12 06:31:13;;;;;;;60.90;32.80;;;;;;;-2.17;95.65;101842.06;7395900;19;20014;-71
2021/12/12 06:33:42;;;;;;;57.30;31.90;;;;;;;-2.17;95.63;101839.50;7395345;19;20019;-71
2021/12/12 06:36:13;;;;;;;61.20;31.42;;;;;;;-2.19;95.34;101846.25;7395338;19;20019;-71
2021/12/12 06:38:45;;;;;;;70.70;34.40;;;;;;;-2.17;95.34;101847.22;7394823;19;20019;-71
2021/12/12 06:41:14;;;;;;;71.68;34.40;;;;;;;-2.17;95.22;101843.78;7396445;19;20014;-71
2021/12/12 06:43:44;;;;;;;63.78;32.40;;;;;;;-2.16;95.32;101849.00;7393965;19;20381;-71
2021/12/12 06:46:15;;;;;;;67.00;32.42;;;;;;;-2.16;95.51;101854.13;7395092;19;20019;-71
2021/12/12 06:48:44;;;;;;;66.55;32.35;;;;;;;-2.14;95.56;101857.66;7395472;19;20018;-71
2021/12/12 06:51:14;;;;;;;66.72;33.63;;;;;;;-2.12;95.53;101868.03;7393233;19;20019;-71
2021/12/12 06:53:45;;;;;;;67.60;34.17;;;;;;;-2.12;95.52;101868.03;7393239;19;20014;-71
2021/12/12 06:56:17;;;;;;;63.75;31.95;;;;;;;-2.10;95.58;101878.38;7395252;19;20028;-71
2021/12/12 06:58:46;;;;;;;69.05;34.42;;;;;;;-2.09;95.69;101882.72;7394290;19;20014;-71
2021/12/12 07:01:21;;;;;;;65.00;34.25;;;;;;;-2.08;95.73;101881.91;7395143;19;20027;-72
2021/12/12 07:03:50;;;;;;;62.45;31.73;;;;;;;-2.08;95.72;101880.22;7393964;19;20018;-71
2021/12/12 07:06:22;;;;;;;63.45;34.35;;;;;;;-2.06;95.58;101877.72;7394590;19;20011;-71
2021/12/12 07:08:50;;;;;;;65.95;33.50;;;;;;;-2.04;95.79;101868.38;7394267;19;20403;-71
2021/12/12 07:11:20;;;;;;;63.63;32.97;;;;;;;-2.02;95.46;101859.94;7394033;19;20483;-71
2021/12/12 07:13:51;;;;;;;64.43;31.42;;;;;;;-1.99;95.50;101866.91;7393460;19;20496;-71
2021/12/12 07:16:24;;;;;;;63.65;32.42;;;;;;;-1.98;95.78;101866.09;7398926;19;20432;-72
2021/12/12 07:18:54;;;;;;;66.70;32.28;;;;;;;-1.94;95.85;101870.59;7400991;19;20381;-71
2021/12/12 07:21:24;;;;;;;64.35;31.85;;;;;;;-1.93;95.85;101864.63;7402430;19;20026;-71
2021/12/12 07:23:53;;;;;;;65.30;34.08;;;;;;;-1.89;95.80;101858.81;7400667;19;20018;-71
2021/12/12 07:26:24;;;;;;;69.35;33.95;;;;;;;-1.86;96.04;101866.69;7400979;19;20023;-71
2021/12/12 07:28:54;;;;;;;65.90;32.70;;;;;;;-1.83;96.02;101871.97;7401518;19;20021;-72
2021/12/12 07:31:28;;;;;;;64.22;34.55;;;;;;;-1.78;95.88;101876.44;7401609;19;20014;-71
2021/12/12 07:34:02;;;;;;;66.78;33.08;;;;;;;-1.76;96.07;101887.69;7400531;19;20015;-72
2021/12/12 07:36:34;;;;;;;63.20;32.20;;;;;;;-1.74;96.04;101886.97;7400928;19;20523;-72
2021/12/12 07:39:08;;;;;;;68.68;33.20;;;;;;;-1.70;96.01;101869.97;7399916;19;20014;-72
2021/12/12 07:41:36;;;;;;;65.28;30.55;;;;;;;-1.67;95.92;101882.97;7401485;19;20019;-72
2021/12/12 07:44:09;;;;;;;59.53;30.33;;;;;;;-1.64;95.78;101873.72;7399441;19;20031;-72
2021/12/12 07:46:40;;;;;;;65.57;34.20;;;;;;;-1.61;95.92;101888.41;7400967;19;20043;-72
2021/12/12 07:49:09;;;;;;;67.43;33.92;;;;;;;-1.58;96.04;101878.28;7400402;19;20456;-72
2021/12/12 07:51:40;;;;;;;64.63;31.27;;;;;;;-1.54;95.80;101876.69;7400211;19;20018;-72
2021/12/12 07:54:09;;;;;;;63.17;31.85;;;;;;;-1.49;96.08;101886.41;7399747;19;20018;-71
2021/12/12 07:56:40;;;;;;;64.82;32.45;;;;;;;-1.48;95.74;101885.59;7400190;19;20344;-72
2021/12/12 07:59:10;;;;;;;62.38;29.20;;;;;;;-1.44;95.71;101888.31;7399842;19;20011;-72
2021/12/12 08:01:45;;;;;;;63.40;32.15;;;;;;;-1.40;95.63;101895.34;7399962;19;20386;-71
2021/12/12 08:04:15;;;;;;;63.05;32.53;;;;;;;-1.40;95.90;101882.47;7399531;19;20036;-71
2021/12/12 08:06:44;;;;;;;67.80;32.53;;;;;;;-1.37;95.80;101891.22;7400606;19;20031;-71
2021/12/12 08:09:14;;;;;;;63.33;32.40;;;;;;;-1.38;95.69;101886.00;7400007;19;20031;-71
2021/12/12 08:11:45;;;;;;;64.18;32.25;;;;;;;-1.31;95.76;101899.22;7399587;19;20012;-71
2021/12/12 08:14:17;;;;;;;58.13;31.05;;;;;;;-1.28;95.92;101902.78;7398425;19;20382;-71
2021/12/12 08:16:49;;;;;;;67.45;33.63;;;;;;;-1.25;96.15;101898.66;7399994;19;20078;-71
2021/12/12 08:19:20;;;;;;;62.20;31.67;;;;;;;-1.22;95.98;101890.19;7398408;19;20011;-71
2021/12/12 08:21:48;;;;;;;69.57;33.63;;;;;;;-1.19;96.14;101883.47;7400062;19;20031;-71
2021/12/12 08:24:18;;;;;;;60.63;31.73;;;;;;;-1.13;96.13;101884.56;7398002;19;20486;-72
2021/12/12 08:26:48;;;;;;;63.53;33.97;;;;;;;-1.11;96.09;101877.75;7397891;19;20022;-72
2021/12/12 08:29:17;;;;;;;67.63;32.72;;;;;;;-1.05;95.94;101883.19;7398128;19;20027;-72
2021/12/12 08:31:48;;;;;;;63.83;32.95;;;;;;;-1.01;96.02;101883.41;7399211;19;20019;-72
2021/12/12 08:34:17;;;;;;;62.75;33.35;;;;;;;-0.96;96.20;101877.56;7398485;19;20367;-72
2021/12/12 08:36:49;;;;;;;70.30;33.35;;;;;;;-0.90;96.06;101880.41;7399241;19;20345;-72
2021/12/12 08:39:18;;;;;;;63.10;32.53;;;;;;;-0.84;96.13;101873.81;7398570;19;20015;-72
2021/12/12 08:41:50;;;;;;;79.45;36.15;;;;;;;-0.80;96.11;101872.25;7398602;19;20500;-72
2021/12/12 08:44:19;;;;;;;69.63;35.17;;;;;;;-0.72;96.15;101870.00;7397682;19;20018;-72
2021/12/12 08:46:53;;;;;;;76.25;36.13;;;;;;;-0.68;95.85;101870.22;7398523;19;20019;-72
2021/12/12 08:49:24;;;;;;;70.82;33.03;;;;;;;-0.62;95.73;101859.28;7399305;19;20027;-72
2021/12/12 08:51:56;;;;;;;75.68;35.70;;;;;;;-0.57;95.77;101860.38;7397450;19;20534;-72
2021/12/12 08:54:27;;;;;;;76.78;38.17;;;;;;;-0.52;95.67;101864.00;7397321;19;20022;-70
2021/12/12 08:57:05;;;;;;;71.95;34.83;;;;;;;-0.47;95.63;101863.31;7398603;19;20018;-71
2021/12/12 08:59:39;;;;;;;71.22;32.65;;;;;;;-0.42;95.58;101866.97;7397101;19;20479;-72
2021/12/12 09:02:12;;;;;;;72.90;35.93;;;;;;;-0.37;95.69;101856.03;7398387;19;20036;-71
2021/12/12 09:04:46;;;;;;;68.65;33.58;;;;;;;-0.32;95.51;101858.78;7396675;19;20360;-72
2021/12/12 09:07:18;;;;;;;76.47;35.47;;;;;;;-0.28;95.36;101862.38;7398556;19;20023;-71
2021/12/12 09:09:50;;;;;;;63.25;32.88;;;;;;;-0.25;95.48;101852.16;7397726;19;20494;-72
2021/12/12 09:12:23;;;;;;;62.75;31.92;;;;;;;-0.19;95.51;101857.56;7397652;19;20504;-72
2021/12/12 09:14:55;;;;;;;67.82;31.70;;;;;;;-0.18;95.44;101852.50;7396554;19;20015;-71
2021/12/12 09:17:30;;;;;;;66.15;32.60;;;;;;;-0.14;95.27;101847.44;7398304;19;20030;-70
2021/12/12 09:20:04;;;;;;;61.53;31.63;;;;;;;-0.12;95.28;101838.09;7396941;19;20014;-72
2021/12/12 09:22:40;;;;;;;57.25;30.23;;;;;;;-0.07;95.29;101840.00;7396654;19;20037;-71
2021/12/12 09:25:18;;;;;;;53.35;30.27;;;;;;;-0.05;95.13;101829.75;7395571;19;20030;-70
2021/12/12 09:27:50;;;;;;;52.53;29.75;;;;;;;0.01;95.06;101826.53;7396759;19;20482;-71
2021/12/12 09:30:23;;;;;;;52.83;29.33;;;;;;;0.02;94.97;101824.00;7397336;19;20022;-71
2021/12/12 09:33:21;;;;;;;57.25;28.95;;;;;;;0.08;95.14;101837.16;7396320;19;20019;-71
2021/12/12 09:35:54;;;;;;;54.13;27.10;;;;;;;0.10;94.79;101835.53;7397197;19;20006;-70
2021/12/12 09:38:29;;;;;;;50.25;27.58;;;;;;;0.14;95.04;101839.97;7395082;19;20227;-71
2021/12/12 09:41:20;;;;;;;50.55;27.13;;;;;;;0.17;94.72;101840.94;7395238;19;20086;-71
2021/12/12 09:44:32;;;;;;;52.95;27.15;;;;;;;0.21;94.27;101850.53;7396638;19;20018;-72
2021/12/12 09:47:26;;;;;;;50.85;27.65;;;;;;;0.23;94.34;101839.44;7395621;19;20452;-71
2021/12/12 09:53:38;;;;;;;49.33;26.77;;;;;;;0.27;93.68;101837.88;7394743;19;20503;-72
2021/12/12 09:56:09;;;;;;;45.72;27.10;;;;;;;0.25;93.72;101836.91;7396010;19;20482;-72
2021/12/12 09:58:46;;;;;;;45.97;24.90;;;;;;;0.30;93.96;101833.72;7396726;19;20030;-72
2021/12/12 10:01:20;;;;;;;47.35;26.00;;;;;;;0.31;94.15;101837.16;7396706;19;20014;-72
2021/12/12 10:04:05;;;;;;;48.33;26.23;;;;;;;0.34;93.94;101836.41;7395799;19;20022;-72
2021/12/12 10:06:46;;;;;;;47.97;26.75;;;;;;;0.36;93.94;101832.19;7396706;19;20100;-72
2021/12/12 10:09:18;;;;;;;48.15;26.00;;;;;;;0.35;93.51;101825.25;7395992;19;20019;-72
2021/12/12 10:11:55;;;;;;;48.92;27.50;;;;;;;0.38;93.73;101830.50;7396559;19;20349;-71
2021/12/12 10:14:30;;;;;;;45.15;26.40;;;;;;;0.39;93.71;101833.19;7395235;19;20018;-72
2021/12/12 10:17:05;;;;;;;45.80;25.35;;;;;;;0.38;94.20;101831.41;7395471;19;20014;-71
2021/12/12 10:19:42;;;;;;;47.70;26.70;;;;;;;0.41;93.55;101841.84;7395698;19;20031;-73
2021/12/12 10:22:25;;;;;;;45.15;25.02;;;;;;;0.41;93.51;101838.41;7396286;19;20023;-72
2021/12/12 10:25:03;;;;;;;41.58;25.20;;;;;;;0.40;93.63;101841.78;7394231;19;20368;-74
2021/12/12 10:27:36;;;;;;;44.90;25.25;;;;;;;0.40;93.49;101849.53;7396135;19;20030;-72
2021/12/12 10:30:13;;;;;;;45.73;25.57;;;;;;;0.39;93.69;101840.94;7395962;19;20028;-72
2021/12/12 10:32:50;;;;;;;43.17;24.85;;;;;;;0.39;93.78;101835.75;7395781;19;20082;-72
2021/12/12 10:35:22;;;;;;;43.70;24.48;;;;;;;0.40;94.07;101824.59;7393875;19;20022;-72
2021/12/12 10:37:58;;;;;;;46.17;25.27;;;;;;;0.42;94.02;101832.41;7395757;19;20022;-72
2021/12/12 10:40:30;;;;;;;45.53;25.05;;;;;;;0.42;94.26;101825.53;7393732;19;20508;-72
2021/12/12 10:43:01;;;;;;;42.88;23.77;;;;;;;0.38;93.81;101817.59;7395210;19;20018;-72
2021/12/12 10:45:33;;;;;;;44.05;23.95;;;;;;;0.44;94.19;101818.75;7393338;19;20018;-72
2021/12/12 10:48:06;;;;;;;43.47;23.23;;;;;;;0.45;93.80;101823.06;7395150;19;20024;-73
2021/12/12 10:50:43;;;;;;;44.63;23.20;;;;;;;0.47;93.86;101825.72;7403130;19;20373;-71
2021/12/12 10:53:25;;;;;;;41.45;24.25;;;;;;;0.51;94.21;101819.84;7400742;19;20471;-71
2021/12/12 10:56:00;;;;;;;43.60;23.90;;;;;;;0.53;93.97;101814.72;7403778;19;20090;-72
2021/12/12 10:58:31;;;;;;;41.38;23.30;;;;;;;0.55;93.97;101819.13;7402568;19;20351;-72
2021/12/12 11:01:05;;;;;;;38.83;23.55;;;;;;;0.60;94.13;101815.00;7399605;19;20035;-72
2021/12/12 11:03:38;;;;;;;45.05;24.80;;;;;;;0.64;94.30;101813.41;7402089;19;20014;-72
2021/12/12 11:06:11;;;;;;;44.45;24.33;;;;;;;0.69;94.24;101811.88;7402570;19;20021;-71
2021/12/12 11:08:49;;;;;;;47.42;24.20;;;;;;;0.72;94.17;101814.56;7402353;19;20014;-72
2021/12/12 11:11:23;;;;;;;41.88;22.95;;;;;;;0.74;93.84;101810.31;7402322;19;20022;-71
2021/12/12 11:13:54;;;;;;;40.70;24.60;;;;;;;0.78;94.03;101809.63;7401497;19;20018;-72
2021/12/12 11:16:31;;;;;;;38.92;22.23;;;;;;;0.80;93.81;101795.03;7401988;19;20031;-72
2021/12/12 11:19:08;;;;;;;34.90;21.35;;;;;;;0.84;93.73;101805.50;7402118;19;20015;-72
2021/12/12 11:21:42;;;;;;;36.47;20.67;;;;;;;0.87;93.37;101803.00;7399377;19;20023;-72
2021/12/12 11:24:20;;;;;;;35.17;20.33;;;;;;;0.90;93.39;101797.97;7400270;19;20021;-71
2021/12/12 11:26:54;;;;;;;38.38;22.63;;;;;;;0.91;93.31;101792.84;7401467;19;20031;-70
2021/12/12 11:29:27;;;;;;;40.58;22.88;;;;;;;0.96;93.27;101796.47;7401729;19;20022;-69
2021/12/12 11:31:58;;;;;;;34.08;20.65;;;;;;;1.00;93.35;101797.47;7401286;19;20022;-73
2021/12/12 11:34:28;;;;;;;35.60;21.13;;;;;;;1.03;93.75;101789.78;7399581;19;20025;-66
2021/12/12 11:37:07;;;;;;;37.70;21.35;;;;;;;1.12;94.22;101786.66;7398683;19;20373;-67
2021/12/12 11:39:45;;;;;;;38.17;20.88;;;;;;;1.24;94.90;101786.16;7400274;19;20504;-67
2021/12/12 11:42:21;;;;;;;37.55;21.08;;;;;;;1.33;94.15;101776.16;7398791;19;20024;-70
2021/12/12 11:45:02;;;;;;;31.48;18.42;;;;;;;1.36;93.63;101781.41;7398440;19;20022;-69
2021/12/12 11:47:47;;;;;;;33.17;19.38;;;;;;;1.37;92.97;101778.00;7401378;19;20014;-70
2021/12/12 11:50:23;;;;;;;34.60;19.00;;;;;;;1.37;92.90;101772.84;7400814;19;20361;-70
2021/12/12 11:53:11;;;;;;;36.83;20.50;;;;;;;1.37;92.70;101767.66;7399524;19;20010;-69
2021/12/12 11:55:47;;;;;;;35.83;18.50;;;;;;;1.38;92.84;101774.59;7400255;19;20504;-69
2021/12/12 11:58:25;;;;;;;34.22;18.85;;;;;;;1.38;92.97;101769.41;7400494;19;20014;-70